Time;durP1;ratioP1;P1;durP2;ratioP2;P2;SDS_P1;SDS_P2;PMS_P1;PMS_P2;Temp;Humidity;BMP_temperature;BMP_pressure;BME280_temperature;BME280_humidity;BME280_pressure;Samples;Min_cycle;Max_cycle;Signal;HPM_P1;HPM_P2
2023/12/03 00:02:20;;;;;;;63.55;29.95;;;-0.80;99.90;;;;;;5021463;28;20533;-84
2023/12/03 00:04:48;;;;;;;61.38;28.85;;;-0.90;99.90;;;;;;5021518;28;20481;-83
2023/12/03 00:07:14;;;;;;;57.60;26.90;;;-0.90;99.90;;;;;;5022562;28;20047;-83
2023/12/03 00:09:39;;;;;;;73.35;30.45;;;-0.90;99.90;;;;;;5011209;28;20057;-83
2023/12/03 00:12:06;;;;;;;72.05;32.38;;;-0.90;99.90;;;;;;4999509;28;20477;-83
2023/12/03 00:14:32;;;;;;;63.70;28.77;;;-0.90;99.90;;;;;;5022814;28;20109;-84
2023/12/03 00:16:57;;;;;;;60.08;27.48;;;-0.90;99.90;;;;;;5022379;28;20049;-83
2023/12/03 00:19:24;;;;;;;56.00;26.10;;;-0.90;99.90;;;;;;5024063;28;20036;-83
2023/12/03 00:21:50;;;;;;;69.35;30.70;;;-0.90;99.90;;;;;;5022146;28;20025;-83
2023/12/03 00:24:15;;;;;;;69.47;30.23;;;-0.90;99.90;;;;;;5020054;28;20271;-84
2023/12/03 00:26:42;;;;;;;59.47;27.80;;;-0.90;99.90;;;;;;5025129;28;20021;-82
2023/12/03 00:29:08;;;;;;;61.85;29.50;;;-0.90;99.90;;;;;;5028080;28;20254;-83
2023/12/03 00:31:35;;;;;;;57.42;27.55;;;-0.90;99.90;;;;;;5027059;28;20241;-84
2023/12/03 00:34:02;;;;;;;56.75;28.10;;;-0.90;99.90;;;;;;5025055;28;20324;-83
2023/12/03 00:36:28;;;;;;;55.33;27.48;;;-0.90;99.90;;;;;;5021435;28;20462;-83
2023/12/03 00:38:54;;;;;;;60.92;29.02;;;-1.00;99.90;;;;;;5024202;28;20069;-83
2023/12/03 00:41:19;;;;;;;57.13;27.80;;;-1.00;99.90;;;;;;5023439;28;20481;-83
2023/12/03 00:43:45;;;;;;;58.92;29.42;;;-1.00;99.90;;;;;;5025983;28;20025;-84
2023/12/03 00:46:11;;;;;;;61.25;28.45;;;-1.10;99.90;;;;;;5026904;28;20044;-83
2023/12/03 00:48:39;;;;;;;67.45;30.65;;;-1.10;99.90;;;;;;5025522;28;20064;-84
2023/12/03 00:51:08;;;;;;;56.55;26.25;;;-1.10;99.90;;;;;;5017358;28;20029;-83
2023/12/03 00:53:35;;;;;;;62.80;27.67;;;-1.10;99.90;;;;;;5024839;28;20305;-83
2023/12/03 00:56:01;;;;;;;59.30;27.35;;;-1.20;99.90;;;;;;5016035;28;20432;-83
2023/12/03 00:58:27;;;;;;;64.45;29.35;;;-1.20;99.90;;;;;;5020673;28;20032;-84
2023/12/03 01:00:53;;;;;;;58.65;26.80;;;-1.20;99.90;;;;;;5025624;28;20371;-84
2023/12/03 01:03:18;;;;;;;56.80;25.63;;;-1.20;99.90;;;;;;5023026;28;20034;-83
2023/12/03 01:05:44;;;;;;;50.33;23.73;;;-1.20;99.90;;;;;;5023259;28;20025;-84
2023/12/03 01:08:10;;;;;;;58.03;27.23;;;-1.20;99.90;;;;;;5024872;28;20053;-84
2023/12/03 01:10:35;;;;;;;64.00;28.48;;;-1.20;99.90;;;;;;5024720;28;20022;-85
2023/12/03 01:13:01;;;;;;;62.20;27.45;;;-1.20;99.90;;;;;;5026031;28;20055;-85
2023/12/03 01:15:29;;;;;;;55.35;23.83;;;-1.20;99.90;;;;;;5026008;28;20375;-83
2023/12/03 01:17:56;;;;;;;39.25;18.80;;;-1.20;99.90;;;;;;5023184;28;20021;-84
2023/12/03 01:20:22;;;;;;;32.65;16.33;;;-1.10;99.90;;;;;;5023453;28;20041;-84
2023/12/03 01:22:47;;;;;;;28.55;15.30;;;-1.20;99.90;;;;;;5024519;28;20438;-84
2023/12/03 01:25:13;;;;;;;31.92;16.88;;;-1.20;99.90;;;;;;5003372;28;20025;-85
2023/12/03 01:27:39;;;;;;;31.33;15.10;;;-1.20;99.90;;;;;;5023136;28;20459;-84
2023/12/03 01:30:05;;;;;;;32.22;15.52;;;-1.20;99.90;;;;;;5023568;28;20075;-84
2023/12/03 01:32:30;;;;;;;28.73;14.30;;;-1.20;99.90;;;;;;5021846;28;20427;-84
2023/12/03 01:34:56;;;;;;;28.63;14.65;;;-1.10;99.90;;;;;;5023839;28;20067;-84
2023/12/03 01:37:21;;;;;;;30.02;14.88;;;-1.20;99.90;;;;;;5021108;28;20022;-84
2023/12/03 01:39:47;;;;;;;33.63;15.68;;;-1.10;99.90;;;;;;5023689;28;20038;-84
2023/12/03 01:42:13;;;;;;;31.48;15.82;;;-1.10;99.90;;;;;;5024572;28;20083;-84
2023/12/03 01:44:38;;;;;;;33.72;16.20;;;-1.10;99.90;;;;;;5022062;28;20029;-84
2023/12/03 01:47:04;;;;;;;32.22;14.95;;;-1.10;99.90;;;;;;5004728;28;20370;-83
2023/12/03 01:49:31;;;;;;;37.70;18.27;;;-1.10;99.90;;;;;;5023968;28;20120;-84
2023/12/03 01:51:57;;;;;;;38.42;18.52;;;-1.00;99.90;;;;;;5019177;28;20426;-84
2023/12/03 01:54:36;;;;;;;31.88;16.65;;;-1.00;99.90;;;;;;5020417;28;20025;-83
2023/12/03 01:57:02;;;;;;;31.75;15.65;;;-1.00;99.90;;;;;;5019208;28;20474;-83
2023/12/03 01:59:27;;;;;;;31.55;16.02;;;-1.00;99.90;;;;;;5019994;28;20024;-85
2023/12/03 02:01:53;;;;;;;31.70;14.57;;;-0.90;99.90;;;;;;5022538;28;20021;-84
2023/12/03 02:04:19;;;;;;;34.05;15.75;;;-0.90;99.90;;;;;;5017122;28;20068;-83
2023/12/03 02:06:44;;;;;;;32.45;16.40;;;-0.90;99.90;;;;;;5018359;28;20021;-84
2023/12/03 02:09:10;;;;;;;29.63;15.32;;;-0.90;99.90;;;;;;5024059;28;20034;-84
2023/12/03 02:11:36;;;;;;;31.48;17.20;;;-0.90;99.90;;;;;;5020555;28;20032;-83
2023/12/03 02:14:03;;;;;;;33.05;16.52;;;-0.90;99.90;;;;;;5010047;28;20091;-84
2023/12/03 02:16:34;;;;;;;37.35;18.45;;;-0.90;99.90;;;;;;5022293;28;20490;-84
2023/12/03 02:19:00;;;;;;;37.72;16.92;;;-0.90;99.90;;;;;;5022159;28;20040;-84
2023/12/03 02:21:25;;;;;;;34.95;16.75;;;-1.00;99.90;;;;;;5017936;28;20021;-84
2023/12/03 02:23:51;;;;;;;32.58;15.57;;;-1.00;99.90;;;;;;5021160;28;20029;-84
2023/12/03 02:26:17;;;;;;;32.83;16.17;;;-1.00;99.90;;;;;;5019378;28;20425;-83
2023/12/03 02:28:42;;;;;;;38.20;17.88;;;-1.00;99.90;;;;;;5020333;28;20022;-84
2023/12/03 02:31:08;;;;;;;32.72;15.70;;;-1.00;99.90;;;;;;5020803;28;20030;-84
2023/12/03 02:33:34;;;;;;;30.80;16.17;;;-1.00;99.90;;;;;;5020930;28;20045;-84
2023/12/03 02:36:00;;;;;;;30.15;16.42;;;-1.00;99.90;;;;;;5022324;28;20044;-84
2023/12/03 02:38:26;;;;;;;35.33;16.20;;;-1.00;99.90;;;;;;5021968;28;20021;-85
2023/12/03 02:40:51;;;;;;;37.40;17.15;;;-1.00;99.90;;;;;;5014787;28;20018;-84
2023/12/03 02:43:17;;;;;;;34.92;17.25;;;-1.00;99.90;;;;;;5020009;28;20030;-84
2023/12/03 02:45:43;;;;;;;33.45;16.65;;;-0.90;99.90;;;;;;5013998;28;20115;-84
2023/12/03 02:48:08;;;;;;;35.42;17.33;;;-0.90;99.90;;;;;;5015202;28;20514;-84
2023/12/03 02:50:34;;;;;;;39.35;18.23;;;-0.90;99.90;;;;;;5021818;28;20059;-85
2023/12/03 02:52:59;;;;;;;36.30;15.75;;;-0.90;99.90;;;;;;5020009;28;20021;-84
2023/12/03 02:55:25;;;;;;;37.00;17.52;;;-0.80;99.90;;;;;;5020887;28;20073;-85
2023/12/03 02:57:50;;;;;;;34.40;16.55;;;-0.80;99.90;;;;;;5024219;28;20025;-84
2023/12/03 03:00:17;;;;;;;37.63;17.70;;;-0.80;99.90;;;;;;5025164;28;20026;-83
2023/12/03 03:02:43;;;;;;;34.72;16.92;;;-0.80;99.90;;;;;;5023532;28;20063;-84
2023/12/03 03:05:08;;;;;;;33.95;16.70;;;-0.80;99.90;;;;;;5023044;28;20124;-84
2023/12/03 03:07:34;;;;;;;37.55;17.20;;;-0.80;99.90;;;;;;5023357;28;20025;-83
2023/12/03 03:09:59;;;;;;;37.47;17.90;;;-0.80;99.90;;;;;;5024825;28;20454;-84
2023/12/03 03:12:25;;;;;;;38.08;17.10;;;-0.90;99.90;;;;;;5024208;28;20013;-84
2023/12/03 03:14:51;;;;;;;37.38;18.38;;;-0.80;99.90;;;;;;5021519;28;21420;-84
2023/12/03 03:17:16;;;;;;;39.60;16.75;;;-0.80;99.90;;;;;;5020104;28;20025;-85
2023/12/03 03:19:43;;;;;;;32.53;16.42;;;-0.80;99.90;;;;;;5022946;28;20025;-84
2023/12/03 03:22:12;;;;;;;38.65;17.98;;;-0.80;99.90;;;;;;5023542;28;20266;-83
2023/12/03 03:24:38;;;;;;;36.97;18.20;;;-0.70;99.90;;;;;;5019998;28;20032;-83
2023/12/03 03:27:04;;;;;;;43.40;19.75;;;-0.70;99.90;;;;;;5024661;28;20025;-84
2023/12/03 03:29:29;;;;;;;41.90;19.23;;;-0.70;99.90;;;;;;5024240;28;20109;-84
2023/12/03 03:31:55;;;;;;;43.13;19.88;;;-0.70;99.90;;;;;;5021375;28;20028;-83
2023/12/03 03:34:20;;;;;;;36.15;18.60;;;-0.80;99.90;;;;;;5021577;28;20399;-83
2023/12/03 03:36:46;;;;;;;39.83;20.10;;;-0.70;99.90;;;;;;5021774;28;20041;-83
2023/12/03 03:39:12;;;;;;;50.08;21.60;;;-0.80;99.90;;;;;;5023878;28;20042;-84
2023/12/03 03:41:37;;;;;;;45.80;20.85;;;-0.70;99.90;;;;;;5024627;28;20025;-83
2023/12/03 03:44:03;;;;;;;47.55;20.75;;;-0.70;99.90;;;;;;5020254;28;20032;-83
2023/12/03 03:46:28;;;;;;;44.33;20.92;;;-0.80;99.90;;;;;;5022783;28;20026;-83
2023/12/03 03:48:54;;;;;;;54.38;23.38;;;-0.80;99.90;;;;;;5021252;28;20180;-83
2023/12/03 03:51:20;;;;;;;51.22;22.85;;;-0.90;99.90;;;;;;5021289;28;20026;-84
2023/12/03 03:53:45;;;;;;;47.88;23.75;;;-0.90;99.90;;;;;;5023810;28;20060;-84
2023/12/03 03:56:12;;;;;;;60.05;26.23;;;-0.80;99.90;;;;;;5021978;28;20036;-83
2023/12/03 03:58:38;;;;;;;49.08;23.98;;;-0.80;99.90;;;;;;5021244;28;20099;-83
2023/12/03 04:01:08;;;;;;;46.95;22.40;;;-0.80;99.90;;;;;;5020637;28;20398;-83
2023/12/03 04:03:33;;;;;;;48.60;23.73;;;-0.80;99.90;;;;;;5023733;28;20036;-83
2023/12/03 04:06:02;;;;;;;48.33;23.40;;;-0.80;99.90;;;;;;5018116;28;20038;-84
2023/12/03 04:08:28;;;;;;;50.92;21.75;;;-0.80;99.90;;;;;;5003620;28;20024;-84
2023/12/03 04:10:53;;;;;;;50.75;23.98;;;-0.80;99.90;;;;;;5021732;28;20017;-83
2023/12/03 04:13:19;;;;;;;46.00;22.73;;;-0.80;99.90;;;;;;5021510;28;20017;-83
2023/12/03 04:15:44;;;;;;;48.85;23.17;;;-0.80;99.90;;;;;;5023816;28;20423;-82
2023/12/03 04:18:10;;;;;;;48.88;22.77;;;-0.80;99.90;;;;;;5003590;28;20796;-83
2023/12/03 04:20:35;;;;;;;43.10;21.50;;;-0.80;99.90;;;;;;5015326;28;20574;-82
2023/12/03 04:23:01;;;;;;;42.38;21.27;;;-0.70;99.90;;;;;;5020289;28;20021;-82
2023/12/03 04:25:28;;;;;;;44.78;23.00;;;-0.70;99.90;;;;;;5015961;28;20482;-83
2023/12/03 04:27:53;;;;;;;50.38;23.38;;;-0.70;99.90;;;;;;5003363;28;20378;-83
2023/12/03 04:30:19;;;;;;;48.45;23.90;;;-0.70;99.90;;;;;;5018118;28;20092;-83
2023/12/03 04:32:44;;;;;;;48.97;23.05;;;-0.70;99.90;;;;;;5017282;28;20024;-83
2023/12/03 04:35:13;;;;;;;46.55;23.52;;;-0.60;99.90;;;;;;5000073;28;20045;-91
2023/12/03 04:37:39;;;;;;;51.75;24.25;;;-0.70;99.90;;;;;;5022723;28;20021;-83
2023/12/03 04:40:05;;;;;;;47.35;22.13;;;-0.70;99.90;;;;;;5016996;28;20571;-82
2023/12/03 04:42:35;;;;;;;43.55;21.52;;;-0.70;99.90;;;;;;5018628;28;20033;-83
2023/12/03 04:45:02;;;;;;;46.47;24.00;;;-0.60;99.90;;;;;;5014640;28;20063;-83
2023/12/03 04:47:29;;;;;;;45.00;23.05;;;-0.70;99.90;;;;;;5021351;28;20033;-83
2023/12/03 04:49:54;;;;;;;44.38;23.77;;;-0.70;99.90;;;;;;5019629;28;20663;-82
2023/12/03 04:52:20;;;;;;;44.25;21.38;;;-0.70;99.90;;;;;;5017217;28;20052;-83
2023/12/03 04:54:46;;;;;;;46.72;22.33;;;-0.70;99.90;;;;;;5021098;28;20022;-83
2023/12/03 04:57:11;;;;;;;48.78;24.40;;;-0.70;99.90;;;;;;5021448;28;20024;-83
2023/12/03 04:59:37;;;;;;;58.92;27.50;;;-0.70;99.90;;;;;;5021325;28;20021;-83
2023/12/03 05:02:03;;;;;;;52.05;24.83;;;-0.70;99.90;;;;;;5020139;28;20370;-83
2023/12/03 05:04:28;;;;;;;48.60;24.08;;;-0.70;99.90;;;;;;5022721;28;20049;-83
2023/12/03 05:06:54;;;;;;;53.20;25.92;;;-0.70;99.90;;;;;;5023987;28;20490;-82
2023/12/03 05:09:20;;;;;;;56.78;27.38;;;-0.70;99.90;;;;;;5024917;28;20401;-83
2023/12/03 05:11:45;;;;;;;47.65;22.83;;;-0.70;99.90;;;;;;5017960;28;20022;-83
2023/12/03 05:14:12;;;;;;;53.22;23.92;;;-0.70;99.90;;;;;;5005807;28;20067;-83
2023/12/03 05:16:38;;;;;;;49.78;24.67;;;-0.70;99.90;;;;;;5026441;28;20112;-83
2023/12/03 05:19:03;;;;;;;49.53;23.90;;;-0.70;99.90;;;;;;5025397;28;20017;-82
2023/12/03 05:21:29;;;;;;;49.47;24.00;;;-0.70;99.90;;;;;;5023839;28;20095;-83
2023/12/03 05:23:55;;;;;;;45.05;23.33;;;-0.70;99.90;;;;;;5022146;28;20048;-83
2023/12/03 05:26:20;;;;;;;41.58;21.73;;;-0.70;99.90;;;;;;5021942;28;20390;-83
2023/12/03 05:28:46;;;;;;;42.30;22.10;;;-0.60;99.90;;;;;;5022685;28;20124;-83
2023/12/03 05:31:12;;;;;;;53.53;25.08;;;-0.60;99.90;;;;;;5022159;28;20026;-83
2023/12/03 05:33:38;;;;;;;54.78;25.98;;;-0.60;99.90;;;;;;5020832;28;20029;-83
2023/12/03 05:36:04;;;;;;;46.55;22.77;;;-0.60;99.90;;;;;;5021462;28;20517;-83
2023/12/03 05:38:29;;;;;;;43.63;22.85;;;-0.60;99.90;;;;;;5023569;28;20021;-82
2023/12/03 05:40:55;;;;;;;43.80;22.35;;;-0.60;99.90;;;;;;5008166;28;20115;-82
2023/12/03 05:43:21;;;;;;;44.47;22.52;;;-0.60;99.90;;;;;;5008059;28;20017;-83
2023/12/03 05:45:46;;;;;;;40.88;21.60;;;-0.60;99.90;;;;;;5005722;28;20018;-83
2023/12/03 05:48:12;;;;;;;43.58;22.75;;;-0.60;99.90;;;;;;5001434;28;20106;-83
2023/12/03 05:50:38;;;;;;;38.40;20.77;;;-0.50;99.90;;;;;;4996141;28;20026;-83
2023/12/03 05:53:03;;;;;;;40.00;21.10;;;-0.50;99.90;;;;;;5017546;28;20014;-82
2023/12/03 05:55:29;;;;;;;42.35;22.58;;;-0.50;99.90;;;;;;5009026;28;20034;-83
2023/12/03 05:57:55;;;;;;;40.55;22.15;;;-0.50;99.90;;;;;;5003005;28;20117;-83
2023/12/03 06:00:20;;;;;;;38.67;20.33;;;-0.60;99.90;;;;;;4996416;28;20092;-83
2023/12/03 06:02:46;;;;;;;45.22;23.05;;;-0.50;99.90;;;;;;4997589;28;20029;-83
2023/12/03 06:05:12;;;;;;;38.70;20.67;;;-0.50;99.90;;;;;;5004894;28;20017;-83
2023/12/03 06:07:37;;;;;;;31.95;18.25;;;-0.50;99.90;;;;;;5003628;28;20186;-83
2023/12/03 06:10:03;;;;;;;31.17;17.15;;;-0.50;99.90;;;;;;5000734;28;20473;-83
2023/12/03 06:12:29;;;;;;;33.15;17.90;;;-0.50;99.90;;;;;;5002914;28;20018;-82
2023/12/03 06:14:55;;;;;;;32.15;17.75;;;-0.50;99.90;;;;;;5009476;28;20475;-82
2023/12/03 06:17:20;;;;;;;34.15;19.45;;;-0.50;99.90;;;;;;5007098;28;20464;-82
2023/12/03 06:19:46;;;;;;;41.58;22.02;;;-0.50;99.90;;;;;;5010235;28;20026;-83
2023/12/03 06:22:12;;;;;;;39.00;20.80;;;-0.50;99.90;;;;;;5006015;28;20137;-83
2023/12/03 06:24:37;;;;;;;40.72;20.75;;;-0.50;99.90;;;;;;5004508;28;20041;-83
2023/12/03 06:27:03;;;;;;;36.97;20.75;;;-0.50;99.90;;;;;;5001298;28;20018;-83
2023/12/03 06:29:29;;;;;;;37.05;19.95;;;-0.50;99.90;;;;;;5002469;28;20025;-83
2023/12/03 06:31:54;;;;;;;40.20;22.25;;;-0.50;99.90;;;;;;5007457;28;20026;-82
2023/12/03 06:34:20;;;;;;;40.50;20.77;;;-0.50;99.90;;;;;;5009973;28;20033;-82
2023/12/03 06:36:46;;;;;;;32.13;19.23;;;-0.50;99.90;;;;;;5001973;28;20041;-83
2023/12/03 06:39:11;;;;;;;37.30;19.60;;;-0.50;99.90;;;;;;5002190;28;20048;-83
2023/12/03 06:41:38;;;;;;;34.45;19.38;;;-0.50;99.90;;;;;;4998675;28;20041;-83
2023/12/03 06:44:04;;;;;;;36.95;20.48;;;-0.50;99.90;;;;;;4996476;28;20116;-83
2023/12/03 06:46:29;;;;;;;40.38;19.60;;;-0.50;99.90;;;;;;5004181;28;20078;-84
2023/12/03 06:48:55;;;;;;;37.03;19.50;;;-0.50;99.90;;;;;;5000097;28;20335;-84
2023/12/03 06:51:22;;;;;;;43.13;21.60;;;-0.50;99.90;;;;;;4998760;28;20348;-85
2023/12/03 06:53:47;;;;;;;33.42;18.85;;;-0.50;99.90;;;;;;4985068;28;20021;-84
2023/12/03 06:56:13;;;;;;;35.90;19.17;;;-0.50;99.90;;;;;;4984514;28;20040;-84
2023/12/03 06:58:39;;;;;;;33.53;18.02;;;-0.50;99.90;;;;;;5001499;28;20034;-84
2023/12/03 07:01:05;;;;;;;37.50;19.83;;;-0.50;99.90;;;;;;5000139;28;20082;-84
2023/12/03 07:03:30;;;;;;;39.22;21.33;;;-0.50;99.90;;;;;;4997845;28;20034;-84
2023/12/03 07:05:59;;;;;;;35.08;19.23;;;-0.50;99.90;;;;;;4997362;28;20914;-84
2023/12/03 07:08:24;;;;;;;34.92;19.48;;;-0.50;99.90;;;;;;4993392;28;20030;-82
2023/12/03 07:10:50;;;;;;;34.30;18.90;;;-0.50;99.90;;;;;;4978318;28;20594;-83
2023/12/03 07:13:16;;;;;;;37.72;19.60;;;-0.50;99.90;;;;;;4998087;28;20021;-84
2023/12/03 07:15:41;;;;;;;31.35;17.08;;;-0.50;99.90;;;;;;5000197;28;20033;-84
2023/12/03 07:18:07;;;;;;;37.85;20.77;;;-0.50;99.90;;;;;;4980630;28;20026;-84
2023/12/03 07:20:32;;;;;;;36.40;19.02;;;-0.50;99.90;;;;;;4999327;28;20025;-85
2023/12/03 07:22:58;;;;;;;33.05;18.05;;;-0.40;99.90;;;;;;5001912;28;20115;-84
2023/12/03 07:25:23;;;;;;;32.20;18.17;;;-0.40;99.90;;;;;;5002483;28;20026;-84
2023/12/03 07:27:49;;;;;;;34.90;19.98;;;-0.40;99.90;;;;;;4997921;28;20419;-84
2023/12/03 07:30:15;;;;;;;47.92;21.13;;;-0.40;99.90;;;;;;4997793;28;20033;-84
2023/12/03 07:32:43;;;;;;;30.85;18.25;;;-0.40;99.90;;;;;;5000650;28;20025;-84
2023/12/03 07:35:09;;;;;;;32.35;17.70;;;-0.50;99.90;;;;;;5000238;28;20065;-84
2023/12/03 07:37:34;;;;;;;29.15;16.85;;;-0.50;99.90;;;;;;5000152;28;20072;-84
2023/12/03 07:40:01;;;;;;;29.33;17.05;;;-0.40;99.90;;;;;;5018299;28;20041;-83
2023/12/03 07:42:27;;;;;;;31.52;16.63;;;-0.40;99.90;;;;;;5024442;28;20017;-84
2023/12/03 07:44:53;;;;;;;38.80;19.95;;;-0.40;99.90;;;;;;5009012;28;20109;-84
2023/12/03 07:47:18;;;;;;;50.58;24.52;;;-0.40;99.90;;;;;;5019434;28;20080;-84
2023/12/03 07:49:44;;;;;;;44.80;22.08;;;-0.40;99.90;;;;;;5007858;28;20018;-84
2023/12/03 07:52:09;;;;;;;37.42;20.85;;;-0.40;99.90;;;;;;5019278;28;20039;-84
2023/12/03 07:54:35;;;;;;;28.30;16.55;;;-0.40;99.90;;;;;;4995919;28;20026;-84
2023/12/03 07:57:01;;;;;;;35.80;20.17;;;-0.40;99.90;;;;;;5014082;28;20025;-84
2023/12/03 07:59:26;;;;;;;31.70;19.00;;;-0.40;99.90;;;;;;5022441;28;20172;-84
2023/12/03 08:01:53;;;;;;;34.40;18.13;;;-0.40;99.90;;;;;;5017734;28;20025;-84
2023/12/03 08:04:19;;;;;;;30.52;17.50;;;-0.40;99.90;;;;;;5012632;28;20040;-84
2023/12/03 08:06:44;;;;;;;31.45;18.38;;;-0.40;99.90;;;;;;5018629;28;20021;-84
2023/12/03 08:09:11;;;;;;;27.38;16.27;;;-0.40;99.90;;;;;;5018633;28;20014;-84
2023/12/03 08:11:37;;;;;;;30.45;18.20;;;-0.40;99.90;;;;;;5017715;28;20141;-84
2023/12/03 08:14:03;;;;;;;27.85;16.98;;;-0.40;99.90;;;;;;5021678;28;20334;-83
2023/12/03 08:16:29;;;;;;;31.65;18.77;;;-0.40;99.90;;;;;;5020559;28;20043;-84
2023/12/03 08:18:54;;;;;;;33.75;19.83;;;-0.40;99.90;;;;;;5018026;28;20032;-84
2023/12/03 08:21:20;;;;;;;38.47;19.50;;;-0.40;99.90;;;;;;5018372;28;20470;-84
2023/12/03 08:23:46;;;;;;;31.52;17.98;;;-0.30;99.90;;;;;;5012166;28;20022;-84
2023/12/03 08:26:15;;;;;;;29.75;17.20;;;-0.30;99.90;;;;;;5022412;28;20071;-84
2023/12/03 08:28:41;;;;;;;30.05;16.73;;;-0.30;99.90;;;;;;5017751;28;20343;-84
2023/12/03 08:31:07;;;;;;;30.13;17.42;;;-0.30;99.90;;;;;;5010603;28;20021;-84
2023/12/03 08:33:33;;;;;;;28.52;15.10;;;-0.30;99.90;;;;;;5018198;28;20072;-84
2023/12/03 08:35:59;;;;;;;30.80;17.95;;;-0.30;99.90;;;;;;5010230;28;20061;-84
2023/12/03 08:38:24;;;;;;;29.80;17.95;;;-0.30;99.90;;;;;;5009373;28;20120;-84
2023/12/03 08:40:51;;;;;;;34.45;19.42;;;-0.20;99.90;;;;;;5015580;28;20117;-84
2023/12/03 08:43:19;;;;;;;29.25;18.02;;;-0.20;99.90;;;;;;5017637;28;20378;-83
2023/12/03 08:45:44;;;;;;;30.58;18.45;;;-0.10;99.90;;;;;;4994653;28;20068;-85
2023/12/03 08:48:10;;;;;;;30.65;18.80;;;0.00;99.90;;;;;;5019092;28;20048;-83
2023/12/03 08:50:39;;;;;;;37.10;20.60;;;-0.10;99.90;;;;;;5014369;28;20245;-84
2023/12/03 08:53:04;;;;;;;39.38;20.98;;;-0.10;99.90;;;;;;5007494;28;20026;-83
2023/12/03 08:55:31;;;;;;;37.78;20.73;;;-0.10;99.90;;;;;;5009267;28;20128;-83
2023/12/03 08:57:57;;;;;;;37.15;20.90;;;-0.10;99.90;;;;;;5017640;28;20116;-84
2023/12/03 09:00:22;;;;;;;37.03;21.48;;;-0.10;99.90;;;;;;5021391;28;20124;-84
2023/12/03 09:02:48;;;;;;;36.97;20.80;;;-0.10;99.90;;;;;;5019469;28;20029;-84
2023/12/03 09:05:14;;;;;;;39.75;21.63;;;-0.10;99.90;;;;;;5019967;28;20033;-84
2023/12/03 09:07:39;;;;;;;38.95;21.13;;;-0.10;99.90;;;;;;5016489;28;20076;-84
2023/12/03 09:10:06;;;;;;;40.58;23.30;;;-0.10;99.90;;;;;;5023243;28;20025;-84
2023/12/03 09:12:32;;;;;;;35.88;20.95;;;-0.10;99.90;;;;;;5008874;28;20120;-84
2023/12/03 09:14:58;;;;;;;42.42;22.27;;;-0.10;99.90;;;;;;5002055;28;20587;-84
2023/12/03 09:17:23;;;;;;;40.13;21.25;;;-0.10;99.90;;;;;;5018733;28;20033;-84
2023/12/03 09:19:49;;;;;;;40.45;22.35;;;-0.10;99.90;;;;;;5016630;28;20025;-84
2023/12/03 09:22:15;;;;;;;37.60;20.98;;;-0.10;99.90;;;;;;5020696;28;20082;-83
2023/12/03 09:24:41;;;;;;;48.97;25.02;;;-0.10;99.90;;;;;;5023197;28;20543;-84
2023/12/03 09:27:07;;;;;;;37.67;21.23;;;-0.10;99.90;;;;;;5023783;28;20037;-84
2023/12/03 09:29:33;;;;;;;38.13;21.83;;;-0.10;99.90;;;;;;5007171;28;20029;-83
2023/12/03 09:31:58;;;;;;;40.53;22.67;;;0.00;99.90;;;;;;5019544;28;20032;-84
2023/12/03 09:34:24;;;;;;;41.83;22.90;;;-0.10;99.90;;;;;;5025814;28;20034;-84
2023/12/03 09:36:50;;;;;;;38.08;20.92;;;0.00;99.90;;;;;;5022958;28;20034;-84
2023/12/03 09:39:16;;;;;;;38.55;21.85;;;0.00;99.90;;;;;;5025288;28;20379;-84
2023/12/03 09:41:47;;;;;;;38.45;21.10;;;0.00;99.90;;;;;;5012741;28;20431;-84
2023/12/03 09:44:24;;;;;;;43.30;22.33;;;0.00;99.90;;;;;;5023951;28;20099;-84
2023/12/03 09:46:52;;;;;;;44.22;22.45;;;0.00;99.90;;;;;;5020350;28;20108;-84
2023/12/03 09:49:21;;;;;;;58.88;32.10;;;0.10;99.90;;;;;;5021043;28;20029;-83
2023/12/03 09:51:47;;;;;;;46.97;26.05;;;0.00;99.90;;;;;;5020063;28;20255;-84
2023/12/03 09:54:13;;;;;;;68.55;33.85;;;0.10;99.90;;;;;;5015020;28;20037;-83
2023/12/03 09:56:42;;;;;;;51.15;25.98;;;0.10;99.90;;;;;;5020402;28;20076;-85
2023/12/03 09:59:10;;;;;;;53.42;27.85;;;0.20;99.90;;;;;;5031222;28;20099;-84
2023/12/03 10:01:40;;;;;;;51.38;26.67;;;0.20;99.90;;;;;;5018723;28;20049;-85
2023/12/03 10:04:06;;;;;;;45.15;23.70;;;0.20;99.90;;;;;;5008245;28;20026;-83
2023/12/03 10:06:36;;;;;;;40.95;22.75;;;0.30;99.90;;;;;;5020061;28;20032;-83
2023/12/03 10:09:03;;;;;;;46.13;23.85;;;0.30;99.90;;;;;;5013555;28;20032;-83
2023/12/03 10:11:40;;;;;;;36.15;19.75;;;0.20;99.90;;;;;;5010684;28;20033;-84
2023/12/03 10:14:12;;;;;;;33.10;17.92;;;0.30;99.90;;;;;;5021667;28;20045;-84
2023/12/03 10:16:39;;;;;;;53.72;27.05;;;0.40;99.90;;;;;;5015418;28;20065;-83
2023/12/03 10:19:05;;;;;;;67.40;31.42;;;0.40;99.90;;;;;;5014235;28;20025;-84
2023/12/03 10:21:30;;;;;;;46.08;23.60;;;0.50;99.90;;;;;;5010134;28;20028;-83
2023/12/03 10:23:58;;;;;;;40.70;19.75;;;0.50;99.90;;;;;;5001529;28;20300;-84
2023/12/03 10:26:23;;;;;;;40.28;19.65;;;0.50;99.90;;;;;;5025135;28;20025;-84
2023/12/03 10:28:49;;;;;;;43.03;21.20;;;0.60;99.90;;;;;;5023866;28;20025;-83
2023/12/03 10:31:15;;;;;;;33.05;17.77;;;0.60;99.90;;;;;;5025239;28;20434;-83
2023/12/03 10:33:44;;;;;;;52.45;26.30;;;0.50;99.90;;;;;;5022471;28;20485;-84
2023/12/03 10:36:11;;;;;;;41.35;20.98;;;0.50;99.90;;;;;;5012910;28;20046;-83
2023/12/03 10:38:38;;;;;;;34.38;17.73;;;0.50;99.90;;;;;;5016215;28;20494;-83
2023/12/03 10:41:15;;;;;;;33.35;18.10;;;0.50;99.90;;;;;;5024241;28;20029;-82
2023/12/03 10:43:43;;;;;;;35.22;18.33;;;0.50;99.90;;;;;;5019184;28;20429;-83
2023/12/03 10:46:10;;;;;;;49.67;25.27;;;0.50;99.90;;;;;;5020482;28;20380;-83
2023/12/03 10:48:37;;;;;;;32.70;18.58;;;0.50;99.90;;;;;;5011259;28;20134;-83
2023/12/03 10:51:05;;;;;;;24.77;14.43;;;0.60;99.90;;;;;;5012275;28;20079;-83
2023/12/03 10:53:32;;;;;;;30.85;16.42;;;0.60;99.90;;;;;;5018791;28;20120;-82
2023/12/03 10:56:00;;;;;;;39.28;19.30;;;0.60;99.90;;;;;;5020607;28;20048;-82
2023/12/03 10:58:26;;;;;;;37.90;18.30;;;0.70;99.90;;;;;;5022396;28;20086;-82
2023/12/03 11:01:01;;;;;;;35.38;16.58;;;0.60;99.90;;;;;;5019670;28;20021;-83
2023/12/03 11:04:08;;;;;;;26.30;15.20;;;0.60;99.90;;;;;;5020182;28;20032;-82
2023/12/03 11:06:35;;;;;;;31.15;18.35;;;0.60;99.90;;;;;;4950755;28;20033;-83
2023/12/03 11:09:01;;;;;;;33.33;18.23;;;0.60;99.90;;;;;;4944353;28;20031;-83
2023/12/03 11:11:27;;;;;;;40.45;21.15;;;0.50;99.90;;;;;;4984387;28;20046;-83
2023/12/03 11:13:56;;;;;;;37.30;20.77;;;0.50;99.90;;;;;;5011725;28;20022;-83
2023/12/03 11:16:27;;;;;;;36.38;18.98;;;0.50;99.90;;;;;;5019150;28;20091;-82
2023/12/03 11:19:01;;;;;;;38.58;21.05;;;0.50;99.90;;;;;;5013283;28;20052;-83
2023/12/03 11:21:37;;;;;;;40.55;20.38;;;0.50;99.90;;;;;;5018672;28;20029;-83
2023/12/03 11:24:36;;;;;;;35.47;20.25;;;0.50;99.90;;;;;;5017954;28;20116;-83
2023/12/03 11:27:02;;;;;;;36.78;21.33;;;0.50;99.90;;;;;;5015069;28;20048;-83
2023/12/03 11:29:48;;;;;;;36.20;19.13;;;0.50;99.90;;;;;;5019425;28;20030;-83
2023/12/03 11:32:15;;;;;;;32.20;19.20;;;0.50;99.90;;;;;;5012819;28;20025;-83
2023/12/03 11:34:41;;;;;;;41.70;22.30;;;0.50;99.90;;;;;;5015212;28;20426;-83
2023/12/03 11:37:09;;;;;;;32.83;18.95;;;0.50;99.90;;;;;;5021526;28;20034;-83
2023/12/03 11:39:42;;;;;;;38.33;21.45;;;0.50;99.90;;;;;;5009346;28;20042;-83
2023/12/03 11:42:09;;;;;;;38.83;21.85;;;0.60;99.90;;;;;;5001231;28;20029;-83
2023/12/03 11:44:37;;;;;;;36.55;21.33;;;0.60;99.90;;;;;;4992472;28;20025;-82
2023/12/03 11:47:10;;;;;;;38.53;21.40;;;0.60;99.90;;;;;;5001577;28;20061;-83
2023/12/03 11:49:42;;;;;;;40.63;23.30;;;0.60;99.90;;;;;;5000849;28;20044;-83
2023/12/03 11:52:11;;;;;;;43.28;24.92;;;0.60;99.90;;;;;;4996717;28;20242;-82
2023/12/03 11:54:51;;;;;;;45.92;25.20;;;0.60;99.90;;;;;;5001985;28;20033;-83
2023/12/03 11:57:17;;;;;;;44.55;25.75;;;0.60;99.90;;;;;;5002955;28;20036;-83
2023/12/03 11:59:45;;;;;;;40.65;23.13;;;0.70;99.90;;;;;;5002107;28;20497;-82
2023/12/03 12:02:12;;;;;;;43.63;22.77;;;0.70;99.90;;;;;;5001090;28;20030;-83
2023/12/03 12:04:38;;;;;;;41.90;23.73;;;0.70;99.90;;;;;;4988238;28;20040;-83
2023/12/03 12:07:16;;;;;;;51.80;30.48;;;0.80;99.90;;;;;;5001802;28;20121;-82
2023/12/03 12:09:45;;;;;;;40.97;23.48;;;0.80;99.90;;;;;;4992125;28;20030;-83
2023/12/03 12:12:11;;;;;;;40.35;22.33;;;0.80;99.90;;;;;;4996857;28;20026;-82
2023/12/03 12:14:37;;;;;;;45.08;22.15;;;0.80;99.90;;;;;;4998965;28;20045;-83
2023/12/03 12:17:03;;;;;;;40.10;21.08;;;0.90;99.90;;;;;;4997973;28;20027;-82
2023/12/03 12:19:29;;;;;;;32.63;17.85;;;0.90;99.90;;;;;;5004555;28;20081;-82
2023/12/03 12:21:56;;;;;;;36.33;17.85;;;0.90;99.90;;;;;;5006015;28;20329;-82
2023/12/03 12:24:22;;;;;;;35.28;18.77;;;0.90;99.90;;;;;;5003996;28;20022;-82
2023/12/03 12:26:51;;;;;;;31.17;17.90;;;0.90;99.90;;;;;;4985940;28;20034;-82